sensor_id;sensor_type;location;lat;lon;timestamp;temperature;humidity
76855;DHT22;66343;44.588;33.450;2023-01-19T00:02:38;14.58;50.02
76855;DHT22;66343;44.588;33.450;2023-01-19T00:05:41;14.55;49.15
76855;DHT22;66343;44.588;33.450;2023-01-19T00:08:35;14.59;47.76
76855;DHT22;66343;44.588;33.450;2023-01-19T00:11:25;14.64;48.12
76855;DHT22;66343;44.588;33.450;2023-01-19T00:14:13;14.62;47.99
76855;DHT22;66343;44.588;33.450;2023-01-19T00:16:56;14.59;47.79
76855;DHT22;66343;44.588;33.450;2023-01-19T00:19:39;14.59;47.66
76855;DHT22;66343;44.588;33.450;2023-01-19T00:22:28;14.60;47.65
76855;DHT22;66343;44.588;33.450;2023-01-19T00:25:14;14.57;48.44
76855;DHT22;66343;44.588;33.450;2023-01-19T00:28:03;14.55;49.20
76855;DHT22;66343;44.588;33.450;2023-01-19T00:30:55;14.54;49.92
76855;DHT22;66343;44.588;33.450;2023-01-19T00:33:48;14.45;50.39
76855;DHT22;66343;44.588;33.450;2023-01-19T00:36:17;14.45;50.19
76855;DHT22;66343;44.588;33.450;2023-01-19T00:38:47;14.43;49.85
76855;DHT22;66343;44.588;33.450;2023-01-19T00:41:33;14.43;49.91
76855;DHT22;66343;44.588;33.450;2023-01-19T00:44:39;14.48;49.22
76855;DHT22;66343;44.588;33.450;2023-01-19T00:47:29;14.54;48.49
76855;DHT22;66343;44.588;33.450;2023-01-19T00:49:58;14.57;48.49
76855;DHT22;66343;44.588;33.450;2023-01-19T00:52:31;14.58;48.79
76855;DHT22;66343;44.588;33.450;2023-01-19T00:55:23;14.57;49.02
76855;DHT22;66343;44.588;33.450;2023-01-19T00:58:14;14.57;49.20
76855;DHT22;66343;44.588;33.450;2023-01-19T01:01:12;14.57;49.41
76855;DHT22;66343;44.588;33.450;2023-01-19T01:04:06;14.53;49.38
76855;DHT22;66343;44.588;33.450;2023-01-19T01:06:58;14.49;49.73
76855;DHT22;66343;44.588;33.450;2023-01-19T01:09:53;14.47;49.67
76855;DHT22;66343;44.588;33.450;2023-01-19T01:12:49;14.50;49.40
76855;DHT22;66343;44.588;33.450;2023-01-19T01:15:43;14.53;49.52
76855;DHT22;66343;44.588;33.450;2023-01-19T01:18:37;14.52;49.73
76855;DHT22;66343;44.588;33.450;2023-01-19T01:21:06;14.47;50.05
76855;DHT22;66343;44.588;33.450;2023-01-19T01:23:36;14.47;49.63
76855;DHT22;66343;44.588;33.450;2023-01-19T01:26:19;14.51;49.46
76855;DHT22;66343;44.588;33.450;2023-01-19T01:29:07;14.55;49.32
76855;DHT22;66343;44.588;33.450;2023-01-19T01:31:52;14.58;49.39
76855;DHT22;66343;44.588;33.450;2023-01-19T01:34:41;14.58;48.91
76855;DHT22;66343;44.588;33.450;2023-01-19T01:37:26;14.60;48.75
76855;DHT22;66343;44.588;33.450;2023-01-19T01:40:18;14.60;48.39
76855;DHT22;66343;44.588;33.450;2023-01-19T01:43:12;14.62;48.26
76855;DHT22;66343;44.588;33.450;2023-01-19T01:45:56;14.62;48.21
76855;DHT22;66343;44.588;33.450;2023-01-19T01:48:55;14.62;48.12
76855;DHT22;66343;44.588;33.450;2023-01-19T01:51:48;14.64;47.92
76855;DHT22;66343;44.588;33.450;2023-01-19T01:54:35;14.66;47.61
76855;DHT22;66343;44.588;33.450;2023-01-19T01:57:19;14.71;47.39
76855;DHT22;66343;44.588;33.450;2023-01-19T02:00:07;14.71;47.36
76855;DHT22;66343;44.588;33.450;2023-01-19T02:02:54;14.74;46.76
76855;DHT22;66343;44.588;33.450;2023-01-19T02:05:42;14.84;46.15
76855;DHT22;66343;44.588;33.450;2023-01-19T02:08:36;14.88;46.31
76855;DHT22;66343;44.588;33.450;2023-01-19T02:11:48;14.89;46.48
76855;DHT22;66343;44.588;33.450;2023-01-19T02:15:03;14.94;46.24
76855;DHT22;66343;44.588;33.450;2023-01-19T02:17:57;14.94;46.22
76855;DHT22;66343;44.588;33.450;2023-01-19T02:20:55;14.94;46.59
76855;DHT22;66343;44.588;33.450;2023-01-19T02:23:52;14.89;46.81
76855;DHT22;66343;44.588;33.450;2023-01-19T02:26:33;14.89;46.64
76855;DHT22;66343;44.588;33.450;2023-01-19T02:29:16;14.92;46.47
76855;DHT22;66343;44.588;33.450;2023-01-19T02:31:50;14.95;46.67
76855;DHT22;66343;44.588;33.450;2023-01-19T02:34:21;14.93;46.71
76855;DHT22;66343;44.588;33.450;2023-01-19T02:36:59;14.91;46.82
76855;DHT22;66343;44.588;33.450;2023-01-19T02:39:57;14.88;47.20
76855;DHT22;66343;44.588;33.450;2023-01-19T02:42:56;14.87;47.51
76855;DHT22;66343;44.588;33.450;2023-01-19T02:45:31;14.80;47.92
76855;DHT22;66343;44.588;33.450;2023-01-19T02:48:00;14.75;47.65
76855;DHT22;66343;44.588;33.450;2023-01-19T02:50:58;14.85;46.66
76855;DHT22;66343;44.588;33.450;2023-01-19T02:57:10;15.04;46.12
76855;DHT22;66343;44.588;33.450;2023-01-19T03:09:19;15.21;46.06
76855;DHT22;66343;44.588;33.450;2023-01-19T03:11:54;15.24;46.12
76855;DHT22;66343;44.588;33.450;2023-01-19T03:14:44;15.25;46.09
76855;DHT22;66343;44.588;33.450;2023-01-19T03:17:30;15.24;46.21
76855;DHT22;66343;44.588;33.450;2023-01-19T03:20:24;15.25;46.17
76855;DHT22;66343;44.588;33.450;2023-01-19T03:23:12;15.25;45.66
76855;DHT22;66343;44.588;33.450;2023-01-19T03:25:59;15.27;45.74
76855;DHT22;66343;44.588;33.450;2023-01-19T03:28:45;15.29;45.70
76855;DHT22;66343;44.588;33.450;2023-01-19T03:31:34;15.29;45.80
76855;DHT22;66343;44.588;33.450;2023-01-19T03:34:27;15.29;45.89
76855;DHT22;66343;44.588;33.450;2023-01-19T03:37:15;15.29;45.64
76855;DHT22;66343;44.588;33.450;2023-01-19T03:40:12;15.31;45.50
76855;DHT22;66343;44.588;33.450;2023-01-19T03:43:05;15.34;45.48
76855;DHT22;66343;44.588;33.450;2023-01-19T03:45:49;15.33;45.22
76855;DHT22;66343;44.588;33.450;2023-01-19T03:48:36;15.34;45.19
76855;DHT22;66343;44.588;33.450;2023-01-19T03:51:23;15.36;45.18
76855;DHT22;66343;44.588;33.450;2023-01-19T03:54:23;15.39;44.69
76855;DHT22;66343;44.588;33.450;2023-01-19T03:57:08;15.42;44.77
76855;DHT22;66343;44.588;33.450;2023-01-19T04:00:03;15.38;44.90
76855;DHT22;66343;44.588;33.450;2023-01-19T04:02:55;15.32;44.80
76855;DHT22;66343;44.588;33.450;2023-01-19T04:05:48;15.34;44.85
76855;DHT22;66343;44.588;33.450;2023-01-19T04:08:39;15.32;44.94
76855;DHT22;66343;44.588;33.450;2023-01-19T04:11:26;15.30;45.03
76855;DHT22;66343;44.588;33.450;2023-01-19T04:14:18;15.27;45.11
76855;DHT22;66343;44.588;33.450;2023-01-19T04:17:06;15.21;45.32
76855;DHT22;66343;44.588;33.450;2023-01-19T04:19:56;15.21;45.28
76855;DHT22;66343;44.588;33.450;2023-01-19T04:22:39;15.17;45.19
76855;DHT22;66343;44.588;33.450;2023-01-19T04:25:25;15.17;45.14
76855;DHT22;66343;44.588;33.450;2023-01-19T04:27:58;15.18;44.94
76855;DHT22;66343;44.588;33.450;2023-01-19T04:30:52;15.17;44.83
76855;DHT22;66343;44.588;33.450;2023-01-19T04:33:46;15.17;44.72
76855;DHT22;66343;44.588;33.450;2023-01-19T04:36:32;15.15;44.71
76855;DHT22;66343;44.588;33.450;2023-01-19T04:39:25;15.17;44.71
76855;DHT22;66343;44.588;33.450;2023-01-19T04:42:14;15.19;44.60
76855;DHT22;66343;44.588;33.450;2023-01-19T04:45:09;15.19;44.41
76855;DHT22;66343;44.588;33.450;2023-01-19T04:47:55;15.17;44.51
76855;DHT22;66343;44.588;33.450;2023-01-19T04:50:50;15.22;44.32
76855;DHT22;66343;44.588;33.450;2023-01-19T04:53:41;15.23;44.51
76855;DHT22;66343;44.588;33.450;2023-01-19T04:56:45;15.23;44.59
76855;DHT22;66343;44.588;33.450;2023-01-19T04:59:44;15.22;44.32
76855;DHT22;66343;44.588;33.450;2023-01-19T05:02:28;15.26;44.27
76855;DHT22;66343;44.588;33.450;2023-01-19T05:04:59;15.28;44.45
76855;DHT22;66343;44.588;33.450;2023-01-19T05:07:43;15.30;44.22
76855;DHT22;66343;44.588;33.450;2023-01-19T05:10:26;15.29;44.38
76855;DHT22;66343;44.588;33.450;2023-01-19T05:13:04;15.29;44.63
76855;DHT22;66343;44.588;33.450;2023-01-19T05:15:34;15.22;45.54
76855;DHT22;66343;44.588;33.450;2023-01-19T05:18:05;15.12;46.53
76855;DHT22;66343;44.588;33.450;2023-01-19T05:20:55;15.06;46.71
76855;DHT22;66343;44.588;33.450;2023-01-19T05:23:22;15.08;46.73
76855;DHT22;66343;44.588;33.450;2023-01-19T05:26:12;15.07;46.44
76855;DHT22;66343;44.588;33.450;2023-01-19T05:28:41;15.08;46.60
76855;DHT22;66343;44.588;33.450;2023-01-19T05:31:13;15.11;46.49
76855;DHT22;66343;44.588;33.450;2023-01-19T05:33:44;15.11;46.44
76855;DHT22;66343;44.588;33.450;2023-01-19T05:36:15;15.12;46.37
76855;DHT22;66343;44.588;33.450;2023-01-19T05:38:44;15.13;45.55
76855;DHT22;66343;44.588;33.450;2023-01-19T05:41:42;15.19;45.37
76855;DHT22;66343;44.588;33.450;2023-01-19T05:44:29;15.24;45.47
76855;DHT22;66343;44.588;33.450;2023-01-19T05:47:19;15.27;45.38
76855;DHT22;66343;44.588;33.450;2023-01-19T05:49:53;15.26;45.57
76855;DHT22;66343;44.588;33.450;2023-01-19T05:52:41;15.27;45.78
76855;DHT22;66343;44.588;33.450;2023-01-19T05:55:32;15.29;45.47
76855;DHT22;66343;44.588;33.450;2023-01-19T05:58:36;15.37;45.17
76855;DHT22;66343;44.588;33.450;2023-01-19T06:01:13;15.41;45.36
76855;DHT22;66343;44.588;33.450;2023-01-19T06:03:41;15.43;45.05
76855;DHT22;66343;44.588;33.450;2023-01-19T06:06:12;15.45;45.03
76855;DHT22;66343;44.588;33.450;2023-01-19T06:09:01;15.47;44.96
76855;DHT22;66343;44.588;33.450;2023-01-19T06:11:52;15.52;45.25
76855;DHT22;66343;44.588;33.450;2023-01-19T06:14:40;15.51;45.51
76855;DHT22;66343;44.588;33.450;2023-01-19T06:17:32;15.52;44.87
76855;DHT22;66343;44.588;33.450;2023-01-19T06:20:29;15.53;44.96
76855;DHT22;66343;44.588;33.450;2023-01-19T06:23:28;15.58;44.23
76855;DHT22;66343;44.588;33.450;2023-01-19T06:25:59;15.66;43.89
76855;DHT22;66343;44.588;33.450;2023-01-19T06:28:27;15.71;44.20
76855;DHT22;66343;44.588;33.450;2023-01-19T06:30:55;15.72;44.52
76855;DHT22;66343;44.588;33.450;2023-01-19T06:33:32;15.75;44.50
76855;DHT22;66343;44.588;33.450;2023-01-19T06:36:07;15.74;44.66
76855;DHT22;66343;44.588;33.450;2023-01-19T06:38:37;15.74;44.36
76855;DHT22;66343;44.588;33.450;2023-01-19T06:41:15;15.77;44.46
76855;DHT22;66343;44.588;33.450;2023-01-19T06:44:06;15.81;44.46
76855;DHT22;66343;44.588;33.450;2023-01-19T06:46:55;15.84;44.42
76855;DHT22;66343;44.588;33.450;2023-01-19T06:49:44;15.88;44.16
76855;DHT22;66343;44.588;33.450;2023-01-19T06:52:17;15.88;44.00
76855;DHT22;66343;44.588;33.450;2023-01-19T06:54:51;15.93;43.93
76855;DHT22;66343;44.588;33.450;2023-01-19T06:57:18;15.93;43.87
76855;DHT22;66343;44.588;33.450;2023-01-19T06:59:46;15.97;43.91
76855;DHT22;66343;44.588;33.450;2023-01-19T07:02:20;16.00;44.05
76855;DHT22;66343;44.588;33.450;2023-01-19T07:05:10;16.04;44.20
76855;DHT22;66343;44.588;33.450;2023-01-19T07:07:59;16.04;44.38
76855;DHT22;66343;44.588;33.450;2023-01-19T07:10:44;15.99;44.47
76855;DHT22;66343;44.588;33.450;2023-01-19T07:13:27;16.03;44.76
76855;DHT22;66343;44.588;33.450;2023-01-19T07:16:13;16.27;44.41
76855;DHT22;66343;44.588;33.450;2023-01-19T07:19:01;16.42;43.58
76855;DHT22;66343;44.588;33.450;2023-01-19T07:21:44;16.29;43.90
76855;DHT22;66343;44.588;33.450;2023-01-19T07:24:27;16.21;44.09
76855;DHT22;66343;44.588;33.450;2023-01-19T07:27:16;16.20;44.11
76855;DHT22;66343;44.588;33.450;2023-01-19T07:30:02;16.16;44.13
76855;DHT22;66343;44.588;33.450;2023-01-19T07:32:59;16.14;44.70
76855;DHT22;66343;44.588;33.450;2023-01-19T07:35:28;16.07;45.52
76855;DHT22;66343;44.588;33.450;2023-01-19T07:38:00;16.06;45.44
76855;DHT22;66343;44.588;33.450;2023-01-19T07:40:30;16.06;45.47
76855;DHT22;66343;44.588;33.450;2023-01-19T07:43:03;16.03;44.77
76855;DHT22;66343;44.588;33.450;2023-01-19T07:45:33;16.06;44.46
76855;DHT22;66343;44.588;33.450;2023-01-19T07:48:01;16.06;44.29
76855;DHT22;66343;44.588;33.450;2023-01-19T07:50:29;16.08;44.32
76855;DHT22;66343;44.588;33.450;2023-01-19T07:53:26;16.10;44.16
76855;DHT22;66343;44.588;33.450;2023-01-19T07:56:10;16.06;44.19
76855;DHT22;66343;44.588;33.450;2023-01-19T07:58:52;16.12;43.82
76855;DHT22;66343;44.588;33.450;2023-01-19T08:01:54;16.14;43.54
76855;DHT22;66343;44.588;33.450;2023-01-19T08:04:48;16.19;43.35
76855;DHT22;66343;44.588;33.450;2023-01-19T08:07:33;16.28;43.11
76855;DHT22;66343;44.588;33.450;2023-01-19T08:10:18;16.32;43.29
76855;DHT22;66343;44.588;33.450;2023-01-19T08:13:11;16.37;42.59
76855;DHT22;66343;44.588;33.450;2023-01-19T08:15:41;16.42;42.66
76855;DHT22;66343;44.588;33.450;2023-01-19T08:18:09;16.46;42.43
76855;DHT22;66343;44.588;33.450;2023-01-19T08:20:42;16.52;42.18
76855;DHT22;66343;44.588;33.450;2023-01-19T08:23:30;16.58;42.21
76855;DHT22;66343;44.588;33.450;2023-01-19T08:26:19;16.64;42.19
76855;DHT22;66343;44.588;33.450;2023-01-19T08:29:05;16.70;41.86
76855;DHT22;66343;44.588;33.450;2023-01-19T08:32:04;16.74;41.74
76855;DHT22;66343;44.588;33.450;2023-01-19T08:34:55;16.82;41.54
76855;DHT22;66343;44.588;33.450;2023-01-19T08:37:47;16.89;41.58
76855;DHT22;66343;44.588;33.450;2023-01-19T08:40:38;16.99;41.35
76855;DHT22;66343;44.588;33.450;2023-01-19T08:43:27;17.03;41.72
76855;DHT22;66343;44.588;33.450;2023-01-19T08:46:11;17.08;41.44
76855;DHT22;66343;44.588;33.450;2023-01-19T08:49:03;17.08;41.34
76855;DHT22;66343;44.588;33.450;2023-01-19T08:51:47;17.15;41.12
76855;DHT22;66343;44.588;33.450;2023-01-19T08:54:39;17.16;40.97
76855;DHT22;66343;44.588;33.450;2023-01-19T08:57:16;17.22;41.27
76855;DHT22;66343;44.588;33.450;2023-01-19T09:00:03;17.29;41.07
76855;DHT22;66343;44.588;33.450;2023-01-19T09:02:58;17.40;40.29
76855;DHT22;66343;44.588;33.450;2023-01-19T09:05:58;17.50;40.62
76855;DHT22;66343;44.588;33.450;2023-01-19T09:08:53;17.65;40.27
76855;DHT22;66343;44.588;33.450;2023-01-19T09:11:41;17.73;39.24
76855;DHT22;66343;44.588;33.450;2023-01-19T09:14:35;17.78;39.40
76855;DHT22;66343;44.588;33.450;2023-01-19T09:17:31;17.83;39.39
76855;DHT22;66343;44.588;33.450;2023-01-19T09:20:24;17.89;39.22
76855;DHT22;66343;44.588;33.450;2023-01-19T09:23:19;17.90;39.01
76855;DHT22;66343;44.588;33.450;2023-01-19T09:25:59;17.87;39.23
76855;DHT22;66343;44.588;33.450;2023-01-19T09:28:31;17.91;39.10
76855;DHT22;66343;44.588;33.450;2023-01-19T09:31:08;17.97;39.04
76855;DHT22;66343;44.588;33.450;2023-01-19T09:33:39;18.03;39.03
76855;DHT22;66343;44.588;33.450;2023-01-19T09:36:10;18.10;38.78
76855;DHT22;66343;44.588;33.450;2023-01-19T09:38:57;18.22;38.91
76855;DHT22;66343;44.588;33.450;2023-01-19T09:41:54;18.29;38.19
76855;DHT22;66343;44.588;33.450;2023-01-19T09:44:49;18.32;38.01
76855;DHT22;66343;44.588;33.450;2023-01-19T09:47:46;18.35;38.00
76855;DHT22;66343;44.588;33.450;2023-01-19T09:50:34;18.28;38.01
76855;DHT22;66343;44.588;33.450;2023-01-19T09:53:32;18.34;38.26
76855;DHT22;66343;44.588;33.450;2023-01-19T09:56:26;18.43;38.04
76855;DHT22;66343;44.588;33.450;2023-01-19T09:59:25;18.48;37.78
76855;DHT22;66343;44.588;33.450;2023-01-19T10:02:14;18.52;37.66
76855;DHT22;66343;44.588;33.450;2023-01-19T10:05:06;18.56;37.20
76855;DHT22;66343;44.588;33.450;2023-01-19T10:08:15;18.56;37.00
76855;DHT22;66343;44.588;33.450;2023-01-19T10:11:00;18.55;37.50
76855;DHT22;66343;44.588;33.450;2023-01-19T10:13:52;18.65;37.97
76855;DHT22;66343;44.588;33.450;2023-01-19T10:16:55;18.62;37.56
76855;DHT22;66343;44.588;33.450;2023-01-19T10:19:53;18.46;37.62
76855;DHT22;66343;44.588;33.450;2023-01-19T10:22:24;18.36;38.33
76855;DHT22;66343;44.588;33.450;2023-01-19T10:25:03;18.36;38.01
76855;DHT22;66343;44.588;33.450;2023-01-19T10:27:37;18.46;38.17
76855;DHT22;66343;44.588;33.450;2023-01-19T10:30:24;18.51;38.20
76855;DHT22;66343;44.588;33.450;2023-01-19T10:32:55;18.54;38.11
76855;DHT22;66343;44.588;33.450;2023-01-19T10:35:26;18.55;38.11
76855;DHT22;66343;44.588;33.450;2023-01-19T10:38:02;18.55;38.47
76855;DHT22;66343;44.588;33.450;2023-01-19T10:41:01;18.52;38.22
76855;DHT22;66343;44.588;33.450;2023-01-19T10:43:47;18.48;38.75
76855;DHT22;66343;44.588;33.450;2023-01-19T10:46:43;18.53;39.11
76855;DHT22;66343;44.588;33.450;2023-01-19T10:49:38;18.51;38.54
76855;DHT22;66343;44.588;33.450;2023-01-19T10:52:29;18.47;38.42
76855;DHT22;66343;44.588;33.450;2023-01-19T10:55:33;18.59;37.87
76855;DHT22;66343;44.588;33.450;2023-01-19T10:58:28;18.78;37.73
76855;DHT22;66343;44.588;33.450;2023-01-19T11:04:19;20.09;34.68
76855;DHT22;66343;44.588;33.450;2023-01-19T11:13:11;21.39;32.13
76855;DHT22;66343;44.588;33.450;2023-01-19T11:16:25;22.87;29.42
76855;DHT22;66343;44.588;33.450;2023-01-19T11:19:29;23.72;27.96
76855;DHT22;66343;44.588;33.450;2023-01-19T11:22:16;24.60;26.81
76855;DHT22;66343;44.588;33.450;2023-01-19T11:25:25;25.12;25.18
76855;DHT22;66343;44.588;33.450;2023-01-19T11:28:27;25.37;24.71
76855;DHT22;66343;44.588;33.450;2023-01-19T11:34:36;26.31;23.35
76855;DHT22;66343;44.588;33.450;2023-01-19T11:39:50;27.04;21.21
76855;DHT22;66343;44.588;33.450;2023-01-19T11:42:19;26.84;21.57
76855;DHT22;66343;44.588;33.450;2023-01-19T11:45:03;27.21;20.49
76855;DHT22;66343;44.588;33.450;2023-01-19T11:47:44;27.35;20.26
76855;DHT22;66343;44.588;33.450;2023-01-19T11:50:43;26.82;21.39
76855;DHT22;66343;44.588;33.450;2023-01-19T11:53:32;26.65;21.34
76855;DHT22;66343;44.588;33.450;2023-01-19T11:56:22;26.13;21.63
76855;DHT22;66343;44.588;33.450;2023-01-19T11:59:15;25.72;22.44
76855;DHT22;66343;44.588;33.450;2023-01-19T12:02:00;25.21;23.24
76855;DHT22;66343;44.588;33.450;2023-01-19T12:04:50;25.32;23.41
76855;DHT22;66343;44.588;33.450;2023-01-19T12:07:43;25.71;22.59
76855;DHT22;66343;44.588;33.450;2023-01-19T12:10:35;25.61;22.95
76855;DHT22;66343;44.588;33.450;2023-01-19T12:13:29;25.18;23.30
76855;DHT22;66343;44.588;33.450;2023-01-19T12:16:21;25.45;23.37
76855;DHT22;66343;44.588;33.450;2023-01-19T12:19:17;25.36;23.27
76855;DHT22;66343;44.588;33.450;2023-01-19T12:22:07;25.08;24.27
76855;DHT22;66343;44.588;33.450;2023-01-19T12:28:46;24.92;24.20
76855;DHT22;66343;44.588;33.450;2023-01-19T12:31:36;24.38;24.57
76855;DHT22;66343;44.588;33.450;2023-01-19T12:34:54;23.68;25.84
76855;DHT22;66343;44.588;33.450;2023-01-19T12:37:40;23.59;26.26
76855;DHT22;66343;44.588;33.450;2023-01-19T12:40:26;23.39;26.55
76855;DHT22;66343;44.588;33.450;2023-01-19T12:43:15;22.93;27.16
76855;DHT22;66343;44.588;33.450;2023-01-19T12:45:59;22.65;28.29
76855;DHT22;66343;44.588;33.450;2023-01-19T12:49:22;22.23;28.65
76855;DHT22;66343;44.588;33.450;2023-01-19T12:55:17;21.34;30.19
76855;DHT22;66343;44.588;33.450;2023-01-19T13:01:16;20.71;31.53
76855;DHT22;66343;44.588;33.450;2023-01-19T13:04:27;20.42;32.00
76855;DHT22;66343;44.588;33.450;2023-01-19T13:09:36;19.75;33.89
76855;DHT22;66343;44.588;33.450;2023-01-19T13:12:22;19.54;34.56
76855;DHT22;66343;44.588;33.450;2023-01-19T13:15:28;19.48;34.60
76855;DHT22;66343;44.588;33.450;2023-01-19T13:18:03;19.38;34.43
76855;DHT22;66343;44.588;33.450;2023-01-19T13:20:45;19.36;34.63
76855;DHT22;66343;44.588;33.450;2023-01-19T13:23:56;19.32;34.67
76855;DHT22;66343;44.588;33.450;2023-01-19T13:26:53;19.24;34.76
76855;DHT22;66343;44.588;33.450;2023-01-19T13:29:50;19.05;34.56
76855;DHT22;66343;44.588;33.450;2023-01-19T13:32:40;18.91;35.24
76855;DHT22;66343;44.588;33.450;2023-01-19T13:46:23;18.47;36.69
76855;DHT22;66343;44.588;33.450;2023-01-19T13:49:38;18.51;36.83
76855;DHT22;66343;44.588;33.450;2023-01-19T13:52:13;18.55;36.25
76855;DHT22;66343;44.588;33.450;2023-01-19T13:55:13;18.76;36.01
76855;DHT22;66343;44.588;33.450;2023-01-19T13:58:19;18.97;35.88
76855;DHT22;66343;44.588;33.450;2023-01-19T14:01:04;19.07;35.27
76855;DHT22;66343;44.588;33.450;2023-01-19T14:04:00;19.12;35.10
76855;DHT22;66343;44.588;33.450;2023-01-19T14:06:37;19.14;34.76
76855;DHT22;66343;44.588;33.450;2023-01-19T14:09:21;19.12;35.35
76855;DHT22;66343;44.588;33.450;2023-01-19T14:12:10;18.97;35.69
76855;DHT22;66343;44.588;33.450;2023-01-19T14:15:11;18.93;35.40
76855;DHT22;66343;44.588;33.450;2023-01-19T14:21:07;18.69;36.30
76855;DHT22;66343;44.588;33.450;2023-01-19T14:24:04;18.48;36.82
76855;DHT22;66343;44.588;33.450;2023-01-19T14:26:50;18.14;37.63
76855;DHT22;66343;44.588;33.450;2023-01-19T14:29:38;17.91;38.50
76855;DHT22;66343;44.588;33.450;2023-01-19T14:32:23;17.72;39.59
76855;DHT22;66343;44.588;33.450;2023-01-19T14:38:13;17.26;40.81
76855;DHT22;66343;44.588;33.450;2023-01-19T14:41:04;17.07;41.22
76855;DHT22;66343;44.588;33.450;2023-01-19T14:43:54;16.87;42.23
76855;DHT22;66343;44.588;33.450;2023-01-19T14:50:36;16.69;41.92
76855;DHT22;66343;44.588;33.450;2023-01-19T14:53:57;16.61;42.03
76855;DHT22;66343;44.588;33.450;2023-01-19T14:56:57;16.52;41.59
76855;DHT22;66343;44.588;33.450;2023-01-19T14:59:56;16.56;40.89
76855;DHT22;66343;44.588;33.450;2023-01-19T15:02:52;16.52;41.29
76855;DHT22;66343;44.588;33.450;2023-01-19T15:05:20;16.48;41.71
76855;DHT22;66343;44.588;33.450;2023-01-19T15:07:48;16.48;41.84
76855;DHT22;66343;44.588;33.450;2023-01-19T15:10:21;16.40;41.67
76855;DHT22;66343;44.588;33.450;2023-01-19T15:12:53;16.39;41.41
76855;DHT22;66343;44.588;33.450;2023-01-19T15:15:26;16.40;40.95
76855;DHT22;66343;44.588;33.450;2023-01-19T15:18:00;16.37;41.29
76855;DHT22;66343;44.588;33.450;2023-01-19T15:20:34;16.36;41.24
76855;DHT22;66343;44.588;33.450;2023-01-19T15:23:04;16.37;40.86
76855;DHT22;66343;44.588;33.450;2023-01-19T15:25:42;16.37;40.81
76855;DHT22;66343;44.588;33.450;2023-01-19T15:28:18;16.35;40.43
76855;DHT22;66343;44.588;33.450;2023-01-19T15:31:20;16.34;40.52
76855;DHT22;66343;44.588;33.450;2023-01-19T15:34:02;16.31;41.23
76855;DHT22;66343;44.588;33.450;2023-01-19T15:36:38;16.28;40.77
76855;DHT22;66343;44.588;33.450;2023-01-19T15:39:12;16.28;40.16
76855;DHT22;66343;44.588;33.450;2023-01-19T15:41:40;16.34;39.57
76855;DHT22;66343;44.588;33.450;2023-01-19T15:44:09;16.35;39.59
76855;DHT22;66343;44.588;33.450;2023-01-19T15:46:54;16.41;39.56
76855;DHT22;66343;44.588;33.450;2023-01-19T15:49:49;16.41;39.80
76855;DHT22;66343;44.588;33.450;2023-01-19T15:52:45;16.36;40.09
76855;DHT22;66343;44.588;33.450;2023-01-19T15:55:36;16.35;39.86
76855;DHT22;66343;44.588;33.450;2023-01-19T15:58:31;16.39;39.23
76855;DHT22;66343;44.588;33.450;2023-01-19T16:01:25;16.43;39.31
76855;DHT22;66343;44.588;33.450;2023-01-19T16:04:25;16.43;38.82
76855;DHT22;66343;44.588;33.450;2023-01-19T16:07:16;16.44;39.19
76855;DHT22;66343;44.588;33.450;2023-01-19T16:09:49;16.40;39.82
76855;DHT22;66343;44.588;33.450;2023-01-19T16:12:21;16.36;40.21
76855;DHT22;66343;44.588;33.450;2023-01-19T16:14:50;16.34;40.19
76855;DHT22;66343;44.588;33.450;2023-01-19T16:17:22;16.29;40.27
76855;DHT22;66343;44.588;33.450;2023-01-19T16:19:55;16.26;40.37
76855;DHT22;66343;44.588;33.450;2023-01-19T16:22:26;16.22;40.36
76855;DHT22;66343;44.588;33.450;2023-01-19T16:25:00;16.24;40.51
76855;DHT22;66343;44.588;33.450;2023-01-19T16:27:34;16.18;40.94
76855;DHT22;66343;44.588;33.450;2023-01-19T16:30:28;16.13;41.29
76855;DHT22;66343;44.588;33.450;2023-01-19T16:33:25;16.14;41.14
76855;DHT22;66343;44.588;33.450;2023-01-19T16:36:26;16.11;40.96
76855;DHT22;66343;44.588;33.450;2023-01-19T16:39:17;16.13;41.15
76855;DHT22;66343;44.588;33.450;2023-01-19T16:42:20;16.03;42.27
76855;DHT22;66343;44.588;33.450;2023-01-19T16:45:16;16.03;41.10
76855;DHT22;66343;44.588;33.450;2023-01-19T16:48:01;16.06;40.84
76855;DHT22;66343;44.588;33.450;2023-01-19T16:50:52;16.08;40.30
76855;DHT22;66343;44.588;33.450;2023-01-19T16:53:48;16.15;39.91
76855;DHT22;66343;44.588;33.450;2023-01-19T16:56:38;16.19;40.28
76855;DHT22;66343;44.588;33.450;2023-01-19T16:59:29;16.21;40.39
76855;DHT22;66343;44.588;33.450;2023-01-19T17:02:15;16.20;40.03
76855;DHT22;66343;44.588;33.450;2023-01-19T17:04:59;16.26;39.76
76855;DHT22;66343;44.588;33.450;2023-01-19T17:07:53;16.29;39.61
76855;DHT22;66343;44.588;33.450;2023-01-19T17:10:51;16.32;39.99
76855;DHT22;66343;44.588;33.450;2023-01-19T17:13:49;16.31;40.04
76855;DHT22;66343;44.588;33.450;2023-01-19T17:16:48;16.30;39.55
76855;DHT22;66343;44.588;33.450;2023-01-19T17:19:39;16.31;39.46
76855;DHT22;66343;44.588;33.450;2023-01-19T17:22:08;16.33;39.71
76855;DHT22;66343;44.588;33.450;2023-01-19T17:24:42;16.32;39.56
76855;DHT22;66343;44.588;33.450;2023-01-19T17:27:14;16.34;39.26
76855;DHT22;66343;44.588;33.450;2023-01-19T17:29:48;16.39;39.52
76855;DHT22;66343;44.588;33.450;2023-01-19T17:32:19;16.41;39.36
76855;DHT22;66343;44.588;33.450;2023-01-19T17:35:03;16.40;39.97
76855;DHT22;66343;44.588;33.450;2023-01-19T17:37:56;16.39;40.07
76855;DHT22;66343;44.588;33.450;2023-01-19T17:40:49;16.30;40.55
76855;DHT22;66343;44.588;33.450;2023-01-19T17:43:47;16.27;40.41
76855;DHT22;66343;44.588;33.450;2023-01-19T17:46:43;16.27;40.01
76855;DHT22;66343;44.588;33.450;2023-01-19T17:49:15;16.26;40.03
76855;DHT22;66343;44.588;33.450;2023-01-19T17:51:47;16.25;39.90
76855;DHT22;66343;44.588;33.450;2023-01-19T17:54:35;16.25;39.97
76855;DHT22;66343;44.588;33.450;2023-01-19T17:57:21;16.25;40.18
76855;DHT22;66343;44.588;33.450;2023-01-19T18:00:08;16.22;39.46
76855;DHT22;66343;44.588;33.450;2023-01-19T18:02:54;16.24;38.83
76855;DHT22;66343;44.588;33.450;2023-01-19T18:05:25;16.28;38.36
76855;DHT22;66343;44.588;33.450;2023-01-19T18:08:18;16.31;38.53
76855;DHT22;66343;44.588;33.450;2023-01-19T18:10:59;16.31;38.63
76855;DHT22;66343;44.588;33.450;2023-01-19T18:13:54;16.30;38.60
76855;DHT22;66343;44.588;33.450;2023-01-19T18:16:43;16.31;38.78
76855;DHT22;66343;44.588;33.450;2023-01-19T18:19:29;16.31;39.05